Time;durP1;ratioP1;P1;durP2;ratioP2;P2;SDS_P1;SDS_P2;PMS_P1;PMS_P2;Temp;Humidity;BMP_temperature;BMP_pressure;BME280_temperature;BME280_humidity;BME280_pressure;Samples;Min_cycle;Max_cycle;Signal;HPM_P1;HPM_P2
2022/07/22 00:01:58;;;;;;;5.40;2.30;;;23.60;82.40;;;;;;4991834;28;20440;-69
2022/07/22 00:04:24;;;;;;;5.33;2.00;;;23.60;82.30;;;;;;4975811;28;20831;-69
2022/07/22 00:06:50;;;;;;;2.40;2.10;;;23.50;82.20;;;;;;4975459;28;20433;-69
2022/07/22 00:09:16;;;;;;;3.00;1.90;;;23.60;82.30;;;;;;4992420;28;20443;-70
2022/07/22 00:11:42;;;;;;;2.40;1.80;;;23.50;82.10;;;;;;4992722;28;20421;-68
2022/07/22 00:14:12;;;;;;;4.80;2.53;;;23.50;82.00;;;;;;4991711;28;20639;-69
2022/07/22 00:16:43;;;;;;;4.43;2.60;;;23.50;82.10;;;;;;4991829;28;20498;-69
2022/07/22 00:19:10;;;;;;;4.47;2.50;;;23.50;82.20;;;;;;4975078;28;20556;-69
2022/07/22 00:21:36;;;;;;;4.87;2.53;;;23.50;82.00;;;;;;4992349;28;20444;-69
2022/07/22 00:24:09;;;;;;;4.33;2.30;;;23.50;82.10;;;;;;4992477;28;20414;-68
2022/07/22 00:26:35;;;;;;;1.93;1.80;;;23.40;82.00;;;;;;4975290;28;20799;-69
2022/07/22 00:29:01;;;;;;;3.50;2.50;;;23.40;82.20;;;;;;4975400;28;21029;-68
2022/07/22 00:31:32;;;;;;;2.40;2.20;;;23.40;82.20;;;;;;4990552;28;20437;-69
2022/07/22 00:34:01;;;;;;;2.80;2.17;;;23.40;82.20;;;;;;4974938;28;20519;-68
2022/07/22 00:36:31;;;;;;;3.87;2.10;;;23.40;82.10;;;;;;4992062;28;20417;-69
2022/07/22 00:38:57;;;;;;;5.27;2.20;;;23.40;82.30;;;;;;4955935;28;20826;-69
2022/07/22 00:41:26;;;;;;;3.07;2.20;;;23.40;82.20;;;;;;4956201;28;20805;-69
2022/07/22 00:43:59;;;;;;;3.33;2.33;;;23.40;82.30;;;;;;5007897;28;20796;-69
2022/07/22 00:46:28;;;;;;;2.80;2.13;;;23.40;82.30;;;;;;4990560;28;20503;-69
2022/07/22 00:48:57;;;;;;;3.30;2.13;;;23.40;82.30;;;;;;4991353;28;20423;-69
2022/07/22 00:51:29;;;;;;;2.83;2.07;;;23.40;82.20;;;;;;4991080;28;20445;-69
2022/07/22 00:53:58;;;;;;;5.17;2.57;;;23.40;82.30;;;;;;5007792;28;20461;-69
2022/07/22 00:56:27;;;;;;;3.87;2.43;;;23.30;82.10;;;;;;5007358;28;20434;-70
2022/07/22 00:58:56;;;;;;;3.17;2.43;;;23.40;82.20;;;;;;5007214;28;20838;-69
2022/07/22 01:01:22;;;;;;;4.20;2.30;;;23.30;82.20;;;;;;4974941;28;20457;-69
2022/07/22 01:03:48;;;;;;;4.30;2.50;;;23.30;82.20;;;;;;4992063;28;20529;-69
2022/07/22 01:06:16;;;;;;;3.17;2.30;;;23.30;82.30;;;;;;4959344;28;20433;-69
2022/07/22 01:08:45;;;;;;;3.40;2.20;;;23.30;82.20;;;;;;4993668;28;21104;-69
2022/07/22 01:11:14;;;;;;;7.43;3.10;;;23.30;82.20;;;;;;4994387;28;20445;-69
2022/07/22 01:13:44;;;;;;;7.50;2.80;;;23.30;82.30;;;;;;4994421;28;20428;-69
2022/07/22 01:16:11;;;;;;;5.13;2.50;;;23.30;82.20;;;;;;4994549;28;20409;-69
2022/07/22 01:18:39;;;;;;;2.40;2.20;;;23.30;82.20;;;;;;4978343;28;20432;-68
2022/07/22 01:21:07;;;;;;;3.23;2.03;;;23.30;82.30;;;;;;5027154;28;20988;-69
2022/07/22 01:23:33;;;;;;;3.57;2.33;;;23.30;82.30;;;;;;4993692;28;20576;-69
2022/07/22 01:26:05;;;;;;;4.37;2.33;;;23.30;82.30;;;;;;4978099;28;20475;-69
2022/07/22 01:28:40;;;;;;;5.67;2.47;;;23.30;82.20;;;;;;5009884;28;20407;-69
2022/07/22 01:31:07;;;;;;;2.60;2.30;;;23.20;82.10;;;;;;4978118;28;20441;-69
2022/07/22 01:33:36;;;;;;;3.50;2.30;;;23.20;82.20;;;;;;4978216;28;20777;-69
2022/07/22 01:36:06;;;;;;;3.87;1.97;;;23.20;82.20;;;;;;4993779;28;20960;-69
2022/07/22 01:38:35;;;;;;;4.20;2.73;;;23.20;82.20;;;;;;5026683;28;20404;-70
2022/07/22 01:41:03;;;;;;;4.00;2.20;;;23.20;82.30;;;;;;5010275;28;20965;-68
2022/07/22 01:43:34;;;;;;;3.70;2.40;;;23.20;82.20;;;;;;4993657;28;20409;-69
2022/07/22 01:46:03;;;;;;;5.07;2.37;;;23.20;82.20;;;;;;5012508;28;20436;-70
2022/07/22 01:48:33;;;;;;;4.10;3.10;;;23.20;82.20;;;;;;5009715;28;20425;-69
2022/07/22 01:51:00;;;;;;;4.23;2.40;;;23.20;82.30;;;;;;4994924;28;20447;-69
2022/07/22 01:53:28;;;;;;;6.73;2.60;;;23.20;82.30;;;;;;4980551;28;20519;-69
2022/07/22 01:55:56;;;;;;;4.23;2.37;;;23.20;82.20;;;;;;4997179;28;20439;-69
2022/07/22 01:58:25;;;;;;;3.80;2.70;;;23.20;82.30;;;;;;5013207;28;20416;-69
2022/07/22 02:00:54;;;;;;;4.13;2.27;;;23.20;82.30;;;;;;4979512;28;20505;-68
2022/07/22 02:03:23;;;;;;;3.30;2.40;;;23.10;82.10;;;;;;4993320;28;20417;-69
2022/07/22 02:05:54;;;;;;;3.10;2.67;;;23.10;82.00;;;;;;4993748;28;20402;-69
2022/07/22 02:08:27;;;;;;;2.57;2.37;;;23.10;82.20;;;;;;4978444;28;20484;-68
2022/07/22 02:11:11;;;;;;;2.73;1.87;;;23.10;82.20;;;;;;4993563;28;20478;-69
2022/07/22 02:14:04;;;;;;;3.63;2.50;;;23.10;82.20;;;;;;4991415;28;20468;-68
2022/07/22 02:19:37;;;;;;;4.20;2.53;;;23.10;82.20;;;;;;4927086;29;20496;-75
2022/07/22 02:22:12;;;;;;;2.70;2.50;;;23.10;82.30;;;;;;4886332;29;20501;-75
2022/07/22 02:24:38;;;;;;;3.13;2.30;;;23.10;82.40;;;;;;4897436;29;20418;-75
2022/07/22 02:27:09;;;;;;;3.47;2.60;;;23.10;82.40;;;;;;4908021;29;20445;-75
2022/07/22 02:29:39;;;;;;;2.70;2.33;;;23.10;82.50;;;;;;4893705;29;20446;-75
2022/07/22 02:32:06;;;;;;;3.20;2.27;;;23.00;82.40;;;;;;4898717;29;20506;-75
2022/07/22 02:34:52;;;;;;;2.57;2.37;;;23.00;82.30;;;;;;4910660;29;20398;-75
2022/07/22 02:37:23;;;;;;;2.17;1.90;;;23.10;82.30;;;;;;4903955;29;20788;-75
2022/07/22 02:39:54;;;;;;;3.60;2.67;;;23.00;82.40;;;;;;4911956;29;20497;-75
2022/07/22 02:42:22;;;;;;;2.80;2.50;;;23.00;82.40;;;;;;4912994;29;20669;-75
2022/07/22 02:44:53;;;;;;;2.97;2.30;;;23.00;82.40;;;;;;4896901;29;20941;-75
2022/07/22 02:47:19;;;;;;;4.53;2.87;;;23.00;82.50;;;;;;4912163;29;20824;-75
2022/07/22 02:49:47;;;;;;;2.60;2.40;;;23.00;82.40;;;;;;4880969;29;20513;-75
2022/07/22 02:52:13;;;;;;;3.30;2.50;;;23.00;82.40;;;;;;4893718;29;20407;-75
2022/07/22 02:54:40;;;;;;;4.07;2.40;;;23.00;82.40;;;;;;4907944;29;20939;-75
2022/07/22 02:57:07;;;;;;;3.23;2.40;;;23.00;82.30;;;;;;4912652;29;20422;-75
2022/07/22 02:59:34;;;;;;;2.40;2.10;;;23.00;82.40;;;;;;4894738;29;20477;-75
2022/07/22 03:02:04;;;;;;;4.80;2.40;;;23.00;82.40;;;;;;4893630;29;20422;-75
2022/07/22 03:04:30;;;;;;;4.77;2.43;;;23.00;82.50;;;;;;4909494;29;20792;-75
2022/07/22 03:06:56;;;;;;;3.57;2.93;;;23.00;82.40;;;;;;4896674;29;20449;-75
2022/07/22 03:09:25;;;;;;;3.90;2.40;;;23.00;82.40;;;;;;4896120;29;20936;-75
2022/07/22 03:11:51;;;;;;;2.53;2.23;;;23.00;82.40;;;;;;4893201;29;20414;-75
2022/07/22 03:14:21;;;;;;;2.40;2.07;;;22.90;82.30;;;;;;4907255;29;20931;-75
2022/07/22 03:16:47;;;;;;;3.93;2.90;;;22.90;82.30;;;;;;4907143;29;20499;-75
2022/07/22 03:19:14;;;;;;;2.33;2.13;;;23.00;82.40;;;;;;4907248;29;20473;-75
2022/07/22 03:21:42;;;;;;;3.57;2.73;;;22.90;82.40;;;;;;4893688;29;20462;-75
2022/07/22 03:24:10;;;;;;;2.87;2.40;;;22.90;82.40;;;;;;4893186;29;21036;-75
2022/07/22 03:26:36;;;;;;;2.40;2.20;;;22.90;82.40;;;;;;4909648;29;20433;-75
2022/07/22 03:29:02;;;;;;;4.43;2.57;;;22.90;82.40;;;;;;4910933;29;20449;-75
2022/07/22 03:31:31;;;;;;;3.00;2.40;;;22.90;82.50;;;;;;4895571;29;20462;-75
2022/07/22 03:34:00;;;;;;;2.80;2.40;;;22.90;82.50;;;;;;4893054;29;20407;-75
2022/07/22 03:36:34;;;;;;;3.00;2.60;;;22.90;82.40;;;;;;4908541;29;20461;-75
2022/07/22 03:38:59;;;;;;;4.00;2.60;;;22.90;82.50;;;;;;4911517;29;20505;-75
2022/07/22 03:41:26;;;;;;;3.13;2.83;;;22.80;82.40;;;;;;4905940;29;20983;-75
2022/07/22 03:43:52;;;;;;;2.80;2.50;;;22.80;82.50;;;;;;4895805;29;20557;-75
2022/07/22 03:46:19;;;;;;;5.27;2.10;;;22.80;82.60;;;;;;4895725;29;20434;-75
2022/07/22 03:48:45;;;;;;;2.73;2.53;;;22.80;82.50;;;;;;4895826;29;20997;-75
2022/07/22 03:51:12;;;;;;;3.43;2.10;;;22.80;82.40;;;;;;4881744;29;20561;-75
2022/07/22 03:53:41;;;;;;;3.60;2.53;;;22.80;83.40;;;;;;4896456;29;20910;-75
2022/07/22 03:56:09;;;;;;;3.53;2.60;;;22.80;82.60;;;;;;4880331;29;20776;-75
2022/07/22 03:58:37;;;;;;;3.40;2.20;;;22.80;82.50;;;;;;4896060;29;20434;-75
2022/07/22 04:01:04;;;;;;;2.40;2.20;;;22.80;82.50;;;;;;4895741;29;20456;-74
2022/07/22 04:03:30;;;;;;;3.20;2.43;;;22.80;82.60;;;;;;4910985;29;20532;-75
2022/07/22 04:06:02;;;;;;;5.30;2.60;;;22.80;82.60;;;;;;4896724;29;20797;-75
2022/07/22 04:08:41;;;;;;;2.20;2.00;;;22.80;82.60;;;;;;4896748;29;20432;-75
2022/07/22 04:11:10;;;;;;;4.43;2.30;;;22.80;82.50;;;;;;4895870;29;20448;-75
2022/07/22 04:13:36;;;;;;;3.93;2.70;;;22.80;82.50;;;;;;4908126;29;20447;-75
2022/07/22 04:16:05;;;;;;;4.87;2.40;;;22.70;82.40;;;;;;4893100;29;20587;-75
2022/07/22 04:18:32;;;;;;;2.87;2.60;;;22.70;83.20;;;;;;4880152;29;20815;-75
2022/07/22 04:20:59;;;;;;;2.37;2.03;;;22.70;82.50;;;;;;4880064;29;20476;-76
2022/07/22 04:23:48;;;;;;;3.23;2.53;;;22.70;82.40;;;;;;4883499;29;20445;-74
2022/07/22 04:26:25;;;;;;;2.90;2.30;;;22.70;82.60;;;;;;4908119;29;20430;-75
2022/07/22 04:28:51;;;;;;;3.03;2.60;;;22.70;82.60;;;;;;4903403;29;20912;-75
2022/07/22 04:31:23;;;;;;;3.90;2.80;;;22.70;82.70;;;;;;4907571;29;20450;-75
2022/07/22 04:33:57;;;;;;;2.83;2.40;;;22.70;82.60;;;;;;4892526;29;20421;-75
2022/07/22 04:36:26;;;;;;;2.50;2.30;;;22.70;82.70;;;;;;4907486;29;20493;-75
2022/07/22 04:39:14;;;;;;;4.50;2.30;;;22.70;82.60;;;;;;4901534;29;20469;-75
2022/07/22 04:41:46;;;;;;;3.50;3.20;;;22.70;82.70;;;;;;4896059;29;20430;-75
2022/07/22 04:44:18;;;;;;;2.43;2.23;;;22.70;82.80;;;;;;4915085;29;20497;-75
2022/07/22 04:46:43;;;;;;;2.97;2.30;;;22.70;82.80;;;;;;4907510;29;20947;-75
2022/07/22 04:49:09;;;;;;;3.80;2.70;;;22.60;82.60;;;;;;4899006;29;20445;-75
2022/07/22 04:51:38;;;;;;;3.73;3.03;;;22.60;82.70;;;;;;4904188;29;20457;-75
2022/07/22 04:54:07;;;;;;;4.53;2.70;;;22.60;82.60;;;;;;4914361;29;20174;-75
2022/07/22 04:56:41;;;;;;;3.50;3.10;;;22.60;82.60;;;;;;4913808;29;20481;-75
2022/07/22 04:59:09;;;;;;;4.90;3.23;;;22.60;82.60;;;;;;4914414;29;20982;-75
2022/07/22 05:01:38;;;;;;;3.30;2.87;;;22.60;82.80;;;;;;4911034;29;20502;-73
2022/07/22 05:04:06;;;;;;;2.80;2.40;;;22.60;82.70;;;;;;4896055;29;20552;-75
2022/07/22 05:06:36;;;;;;;2.70;2.47;;;22.60;82.60;;;;;;4911800;29;20424;-75
2022/07/22 05:09:20;;;;;;;4.70;2.77;;;22.60;82.60;;;;;;4914577;29;20478;-76
2022/07/22 05:11:53;;;;;;;2.73;2.30;;;22.60;82.60;;;;;;4881389;29;20521;-75
2022/07/22 05:14:24;;;;;;;2.90;2.53;;;22.60;82.60;;;;;;4904742;29;20456;-75
2022/07/22 05:16:53;;;;;;;3.00;2.47;;;22.60;83.40;;;;;;4880859;29;20518;-74
2022/07/22 05:19:27;;;;;;;4.33;2.50;;;22.60;82.60;;;;;;4894610;29;20454;-73
2022/07/22 05:21:58;;;;;;;2.70;2.50;;;22.60;82.70;;;;;;4896585;29;20423;-72
2022/07/22 05:24:24;;;;;;;3.13;2.37;;;22.50;82.60;;;;;;4902985;29;20438;-73
2022/07/22 05:26:51;;;;;;;2.70;2.50;;;22.50;82.60;;;;;;4912868;29;20473;-73
2022/07/22 05:29:20;;;;;;;2.73;2.50;;;22.50;82.60;;;;;;4867982;29;20843;-73
2022/07/22 05:31:46;;;;;;;3.23;2.63;;;22.50;82.70;;;;;;4898914;29;20521;-78
2022/07/22 05:34:14;;;;;;;3.30;3.00;;;22.50;82.70;;;;;;4912067;29;20454;-72
2022/07/22 05:36:49;;;;;;;3.00;2.40;;;22.50;82.70;;;;;;4909701;29;20438;-74
2022/07/22 05:39:16;;;;;;;3.63;2.50;;;22.50;82.80;;;;;;4905680;29;20463;-73
2022/07/22 05:41:43;;;;;;;3.10;2.80;;;22.50;82.80;;;;;;4913552;29;20448;-74
2022/07/22 05:44:34;;;;;;;4.00;2.10;;;22.50;82.90;;;;;;4910128;29;20458;-74
2022/07/22 05:47:00;;;;;;;3.67;2.70;;;22.50;82.80;;;;;;4910501;29;20418;-74
2022/07/22 05:49:31;;;;;;;2.70;2.40;;;22.50;82.90;;;;;;4894916;29;20435;-74
2022/07/22 05:52:04;;;;;;;2.97;2.63;;;22.50;82.90;;;;;;4907778;29;20477;-75
2022/07/22 05:54:31;;;;;;;2.47;2.27;;;22.40;82.60;;;;;;4895850;29;20456;-76
2022/07/22 05:57:17;;;;;;;2.90;2.70;;;22.40;82.70;;;;;;4879907;29;20430;-77
2022/07/22 05:59:44;;;;;;;2.73;2.47;;;22.50;82.80;;;;;;4896482;29;21005;-75
2022/07/22 06:02:10;;;;;;;3.23;2.87;;;22.40;82.70;;;;;;4870258;29;20450;-76
2022/07/22 06:04:43;;;;;;;2.87;2.60;;;22.40;82.70;;;;;;4894522;29;20486;-74
2022/07/22 06:07:12;;;;;;;2.77;1.97;;;22.50;82.80;;;;;;4910475;29;20434;-74
2022/07/22 06:09:43;;;;;;;4.60;2.50;;;22.40;82.60;;;;;;4896351;29;20816;-73
2022/07/22 06:12:14;;;;;;;2.53;2.30;;;22.50;82.80;;;;;;4878645;29;20521;-73
2022/07/22 06:14:43;;;;;;;3.00;2.70;;;22.40;82.50;;;;;;4909552;29;20482;-75
2022/07/22 06:17:09;;;;;;;4.27;2.20;;;22.40;82.60;;;;;;4913327;29;20534;-73
2022/07/22 06:19:35;;;;;;;2.70;2.43;;;22.40;82.60;;;;;;4898496;29;20589;-73
2022/07/22 06:22:01;;;;;;;3.60;2.27;;;22.40;82.60;;;;;;4898213;29;20422;-73
2022/07/22 06:24:27;;;;;;;3.93;2.30;;;22.40;82.60;;;;;;4908863;29;20817;-73
2022/07/22 06:26:54;;;;;;;3.10;2.30;;;22.40;82.60;;;;;;4894337;29;20424;-73
2022/07/22 06:29:20;;;;;;;3.23;2.30;;;22.40;83.40;;;;;;4909621;29;20799;-73
2022/07/22 06:31:50;;;;;;;2.13;1.93;;;22.40;82.60;;;;;;4897143;29;20782;-73
2022/07/22 06:34:19;;;;;;;3.30;2.27;;;22.40;82.60;;;;;;4895895;29;20537;-73
2022/07/22 06:37:03;;;;;;;4.33;2.80;;;22.40;82.60;;;;;;4896645;29;20581;-73
2022/07/22 06:39:29;;;;;;;3.87;1.97;;;22.40;82.60;;;;;;4910482;29;20454;-73
2022/07/22 06:42:22;;;;;;;2.50;2.30;;;22.40;82.60;;;;;;4912025;29;20486;-73
2022/07/22 06:45:09;;;;;;;4.07;2.13;;;22.40;82.60;;;;;;4909503;29;20426;-73
2022/07/22 06:47:54;;;;;;;2.30;2.10;;;22.40;82.60;;;;;;4896248;29;20446;-74
2022/07/22 06:50:23;;;;;;;3.17;2.10;;;22.30;82.50;;;;;;4908443;29;21078;-73
2022/07/22 06:52:50;;;;;;;2.40;2.20;;;22.30;82.50;;;;;;4906755;29;20477;-74
2022/07/22 06:55:16;;;;;;;4.13;2.07;;;22.30;82.40;;;;;;4909025;29;20454;-74
2022/07/22 06:57:53;;;;;;;5.90;2.20;;;22.30;82.40;;;;;;4912296;29;20406;-74
2022/07/22 07:00:19;;;;;;;3.70;2.33;;;22.30;82.40;;;;;;4907358;29;20474;-74
2022/07/22 07:03:14;;;;;;;2.50;2.30;;;22.30;82.40;;;;;;4901791;29;20434;-74
2022/07/22 07:05:40;;;;;;;4.73;2.40;;;22.30;82.40;;;;;;4907992;29;20554;-74
2022/07/22 07:08:06;;;;;;;2.80;2.13;;;22.30;82.40;;;;;;4888973;29;20485;-74
2022/07/22 07:10:32;;;;;;;1.93;1.70;;;22.30;82.40;;;;;;4887142;29;20485;-74
2022/07/22 07:13:09;;;;;;;3.10;2.57;;;22.30;82.40;;;;;;4895144;29;20493;-74
2022/07/22 07:15:41;;;;;;;3.87;2.30;;;22.30;82.30;;;;;;4893721;29;20461;-74
2022/07/22 07:18:08;;;;;;;2.27;2.07;;;22.30;82.40;;;;;;4910584;29;20520;-74
2022/07/22 07:20:34;;;;;;;2.30;1.87;;;22.30;82.40;;;;;;4905236;29;20868;-74
2022/07/22 07:23:04;;;;;;;4.27;2.10;;;22.30;82.50;;;;;;4898732;29;20434;-74
2022/07/22 07:25:37;;;;;;;2.53;1.80;;;22.30;82.50;;;;;;4880752;29;20438;-74
2022/07/22 07:28:06;;;;;;;2.10;1.80;;;22.30;82.40;;;;;;4912013;29;20438;-74
2022/07/22 07:30:50;;;;;;;3.03;1.90;;;22.30;82.40;;;;;;4912444;29;20990;-74
2022/07/22 07:33:17;;;;;;;4.70;2.10;;;22.30;82.40;;;;;;4908625;29;20442;-74
2022/07/22 07:35:48;;;;;;;3.53;2.00;;;22.30;82.30;;;;;;4899808;29;21039;-74
2022/07/22 07:38:20;;;;;;;2.13;1.80;;;22.30;82.30;;;;;;4909304;29;20583;-74
2022/07/22 07:40:51;;;;;;;3.13;2.07;;;22.30;82.30;;;;;;4883018;29;20561;-74
2022/07/22 07:43:20;;;;;;;2.90;2.10;;;22.30;82.30;;;;;;4884255;29;21111;-74
2022/07/22 07:45:55;;;;;;;2.50;1.90;;;22.30;82.30;;;;;;4909417;29;21162;-74
2022/07/22 07:48:24;;;;;;;2.80;2.40;;;22.20;82.20;;;;;;4903252;29;20503;-74
2022/07/22 07:50:50;;;;;;;2.13;1.87;;;22.30;82.30;;;;;;4929874;29;20441;-75
2022/07/22 07:53:21;;;;;;;4.40;2.07;;;22.30;82.20;;;;;;4911224;29;20473;-74
2022/07/22 07:55:50;;;;;;;4.80;2.30;;;22.30;82.20;;;;;;4895855;29;20445;-75
2022/07/22 07:58:19;;;;;;;3.40;2.10;;;22.30;82.30;;;;;;4895858;29;20412;-74
2022/07/22 08:00:45;;;;;;;2.97;2.00;;;22.30;82.30;;;;;;4903481;29;20474;-74
2022/07/22 08:03:12;;;;;;;3.97;2.10;;;22.30;82.10;;;;;;4908596;29;20440;-75
2022/07/22 08:05:43;;;;;;;3.00;2.10;;;22.30;82.20;;;;;;4907822;29;20465;-74
2022/07/22 08:08:16;;;;;;;3.43;2.10;;;22.20;82.10;;;;;;4908114;29;20832;-74
2022/07/22 08:10:44;;;;;;;2.37;1.90;;;22.30;82.20;;;;;;4916125;29;20483;-73
2022/07/22 08:13:30;;;;;;;2.70;2.40;;;22.30;82.30;;;;;;4895729;29;20465;-73
2022/07/22 08:16:20;;;;;;;2.50;1.80;;;22.20;82.10;;;;;;4897663;29;20437;-73
2022/07/22 08:18:46;;;;;;;2.83;1.80;;;22.20;82.10;;;;;;4915184;29;20467;-74
2022/07/22 08:21:12;;;;;;;4.73;2.47;;;22.20;82.10;;;;;;4911890;29;20467;-75
2022/07/22 08:23:52;;;;;;;4.67;2.40;;;22.20;82.00;;;;;;4906065;29;20439;-75
2022/07/22 08:26:18;;;;;;;2.00;1.80;;;22.20;82.00;;;;;;4899573;29;20463;-72
2022/07/22 08:28:45;;;;;;;3.03;1.90;;;22.20;81.90;;;;;;4912388;29;20441;-74
2022/07/22 08:31:11;;;;;;;4.00;2.27;;;22.30;82.10;;;;;;4897223;29;20497;-75
2022/07/22 08:33:40;;;;;;;2.40;2.10;;;22.20;82.00;;;;;;4907402;29;20449;-76
2022/07/22 08:36:06;;;;;;;2.83;2.20;;;22.20;82.00;;;;;;4895698;29;20460;-75
2022/07/22 08:38:32;;;;;;;4.50;2.40;;;22.20;82.00;;;;;;4897667;29;20529;-75
2022/07/22 08:41:01;;;;;;;2.63;1.97;;;22.20;81.90;;;;;;4914738;29;21039;-75
2022/07/22 08:43:34;;;;;;;2.70;2.00;;;22.20;81.90;;;;;;4911498;29;20426;-74
2022/07/22 08:46:01;;;;;;;1.97;1.80;;;22.20;81.90;;;;;;4905750;29;20433;-75
2022/07/22 08:48:30;;;;;;;2.70;2.33;;;22.20;81.90;;;;;;4913210;29;20445;-74
2022/07/22 08:51:20;;;;;;;4.23;2.40;;;22.20;81.70;;;;;;4911883;29;20490;-75
2022/07/22 08:53:56;;;;;;;3.00;2.43;;;22.20;81.70;;;;;;4912176;29;20440;-75
2022/07/22 08:56:22;;;;;;;2.73;2.27;;;22.20;81.70;;;;;;4911935;29;20440;-75
2022/07/22 08:58:49;;;;;;;2.87;2.60;;;22.20;81.60;;;;;;4911635;29;20433;-74
2022/07/22 09:01:34;;;;;;;2.63;2.00;;;22.20;81.60;;;;;;4912701;29;20456;-74
2022/07/22 09:04:00;;;;;;;4.47;2.47;;;22.20;81.60;;;;;;4886752;29;20433;-74
2022/07/22 09:06:37;;;;;;;5.33;2.70;;;22.20;81.50;;;;;;4922950;29;20433;-75
2022/07/22 09:09:37;;;;;;;2.57;2.37;;;22.20;81.60;;;;;;4921288;29;21194;-74
2022/07/22 09:12:22;;;;;;;3.60;2.27;;;22.20;81.50;;;;;;4919801;29;20768;-74
2022/07/22 09:15:08;;;;;;;2.53;2.30;;;22.20;81.60;;;;;;4899643;29;20453;-74
2022/07/22 09:17:43;;;;;;;3.17;2.50;;;22.20;81.50;;;;;;4899644;29;20438;-74
2022/07/22 09:20:31;;;;;;;3.17;2.40;;;22.20;81.50;;;;;;4900077;29;20831;-75
2022/07/22 09:23:20;;;;;;;4.33;2.50;;;22.20;81.50;;;;;;4899231;29;20431;-74
2022/07/22 09:25:49;;;;;;;3.53;2.23;;;22.20;81.40;;;;;;4913572;29;20413;-74
2022/07/22 09:28:56;;;;;;;3.57;2.07;;;22.20;81.40;;;;;;4917092;29;20454;-75
2022/07/22 09:31:36;;;;;;;2.57;2.37;;;22.20;81.40;;;;;;4877094;29;20979;-75
2022/07/22 09:34:34;;;;;;;4.33;2.50;;;22.20;81.40;;;;;;4909492;29;20466;-74
2022/07/22 09:37:11;;;;;;;4.77;2.70;;;22.20;81.20;;;;;;4884020;29;20452;-75
2022/07/22 09:39:42;;;;;;;2.87;2.53;;;22.20;81.30;;;;;;4881188;29;20482;-74
2022/07/22 09:42:11;;;;;;;3.00;2.60;;;22.20;81.20;;;;;;4896697;29;20433;-75
2022/07/22 09:44:37;;;;;;;3.60;2.53;;;22.20;81.20;;;;;;4894849;29;21002;-75
2022/07/22 09:47:30;;;;;;;4.07;3.00;;;22.20;81.30;;;;;;4912343;29;20444;-76
2022/07/22 09:50:20;;;;;;;4.00;3.13;;;22.20;81.20;;;;;;4913158;29;20477;-73
2022/07/22 09:53:22;;;;;;;4.10;3.27;;;22.20;81.20;;;;;;4892774;29;20484;-74
2022/07/22 09:56:00;;;;;;;4.27;3.67;;;22.20;81.10;;;;;;4910172;29;20438;-74
2022/07/22 09:58:27;;;;;;;6.23;3.80;;;22.20;81.20;;;;;;4903157;29;20446;-73
2022/07/22 10:00:57;;;;;;;4.73;3.60;;;22.20;81.10;;;;;;4899217;29;20465;-74
2022/07/22 10:03:32;;;;;;;4.73;3.60;;;22.20;81.10;;;;;;4909066;29;20818;-74
2022/07/22 10:06:01;;;;;;;5.10;3.93;;;22.20;81.00;;;;;;4913141;29;20811;-76
2022/07/22 10:08:31;;;;;;;6.67;4.57;;;22.20;80.90;;;;;;4901162;29;20951;-80
2022/07/22 10:11:05;;;;;;;7.10;4.87;;;22.20;80.90;;;;;;4918590;29;20445;-78
2022/07/22 10:13:37;;;;;;;7.33;5.70;;;22.30;80.90;;;;;;4913030;29;20472;-80
2022/07/22 10:16:10;;;;;;;7.57;6.40;;;22.30;80.80;;;;;;4898605;29;20705;-79
2022/07/22 10:18:45;;;;;;;9.77;6.50;;;22.30;80.80;;;;;;4901449;29;20453;-80
2022/07/22 10:21:11;;;;;;;8.17;6.00;;;22.30;80.70;;;;;;4910820;29;20497;-79
2022/07/22 10:24:12;;;;;;;9.03;7.23;;;22.30;80.70;;;;;;4910866;29;20526;-78
2022/07/22 10:26:53;;;;;;;9.20;7.40;;;22.30;80.60;;;;;;4991041;23;20497;-70
2022/07/22 10:29:26;;;;;;;8.60;7.03;;;22.30;80.70;;;;;;4981219;28;20421;-70
2022/07/22 10:32:16;;;;;;;8.83;7.00;;;22.30;80.60;;;;;;4987908;28;20441;-71
2022/07/22 10:35:03;;;;;;;11.40;8.00;;;22.30;80.50;;;;;;4944998;28;20487;-71
2022/07/22 10:37:40;;;;;;;8.80;6.50;;;22.30;80.50;;;;;;4943556;29;20812;-70
2022/07/22 10:40:15;;;;;;;9.60;7.90;;;22.30;80.50;;;;;;4961702;28;20473;-71
2022/07/22 10:43:03;;;;;;;9.00;6.70;;;22.30;80.50;;;;;;4971444;28;20983;-71
2022/07/22 10:46:02;;;;;;;11.23;8.17;;;22.30;80.60;;;;;;4970964;28;20513;-71
2022/07/22 10:48:36;;;;;;;10.70;8.67;;;22.40;80.70;;;;;;4971122;28;20520;-71
2022/07/22 10:51:14;;;;;;;11.50;8.20;;;22.40;80.80;;;;;;4960607;28;20500;-71
2022/07/22 10:54:01;;;;;;;10.43;9.43;;;22.40;80.70;;;;;;4969770;28;20443;-72
2022/07/22 10:56:35;;;;;;;14.50;9.07;;;22.40;80.70;;;;;;4954285;28;20913;-70
2022/07/22 10:59:19;;;;;;;12.70;9.53;;;22.40;80.70;;;;;;4967912;28;20469;-70
2022/07/22 11:01:57;;;;;;;11.03;9.60;;;22.40;80.50;;;;;;4998221;28;20452;-74
2022/07/22 11:04:27;;;;;;;10.67;9.10;;;22.50;80.60;;;;;;4981961;28;20445;-72
2022/07/22 11:06:56;;;;;;;12.87;10.33;;;22.50;80.50;;;;;;4969232;28;20455;-70
2022/07/22 11:09:34;;;;;;;12.40;10.10;;;22.50;80.40;;;;;;4976970;28;20819;-71
2022/07/22 11:12:00;;;;;;;11.90;10.60;;;22.50;80.20;;;;;;4976302;28;20499;-70
2022/07/22 11:14:36;;;;;;;11.70;10.43;;;22.50;80.10;;;;;;4970108;28;20577;-70
2022/07/22 11:17:10;;;;;;;12.10;10.70;;;22.50;80.00;;;;;;4974801;28;20557;-70
2022/07/22 11:19:38;;;;;;;12.63;10.70;;;22.60;80.00;;;;;;4979226;28;20924;-70
2022/07/22 11:22:05;;;;;;;12.13;10.83;;;22.60;80.00;;;;;;4977366;28;21081;-70
2022/07/22 11:24:37;;;;;;;12.00;10.70;;;22.60;79.80;;;;;;4982752;28;20414;-70
2022/07/22 11:27:04;;;;;;;12.20;10.90;;;22.60;79.70;;;;;;4978658;28;20473;-71
2022/07/22 11:29:34;;;;;;;13.73;11.10;;;22.70;79.90;;;;;;4980016;28;20937;-70
2022/07/22 11:32:07;;;;;;;14.43;10.13;;;22.70;79.90;;;;;;4978283;28;20414;-70
2022/07/22 11:34:37;;;;;;;11.93;10.50;;;22.60;79.70;;;;;;4963718;28;20454;-70
2022/07/22 11:37:06;;;;;;;14.77;11.83;;;22.70;79.80;;;;;;4954668;28;20796;-71
2022/07/22 11:39:35;;;;;;;11.03;9.93;;;22.70;79.80;;;;;;4974128;28;20537;-70
2022/07/22 11:42:04;;;;;;;12.17;10.67;;;22.70;79.80;;;;;;4968134;28;20467;-70
2022/07/22 11:44:38;;;;;;;11.83;10.47;;;22.70;79.70;;;;;;4965385;28;20434;-70
2022/07/22 11:47:10;;;;;;;14.50;12.23;;;22.70;79.50;;;;;;4969027;28;20943;-69
2022/07/22 11:49:37;;;;;;;13.03;11.57;;;22.70;79.60;;;;;;4971268;28;20438;-70
2022/07/22 11:52:12;;;;;;;12.60;11.13;;;22.80;79.60;;;;;;4970267;28;20517;-71
2022/07/22 11:54:40;;;;;;;11.97;10.77;;;22.80;79.70;;;;;;4956615;28;20477;-70
2022/07/22 11:57:06;;;;;;;13.20;11.83;;;22.80;79.60;;;;;;4970546;28;20446;-72
2022/07/22 11:59:36;;;;;;;13.03;11.70;;;22.80;79.60;;;;;;4970300;28;20549;-70
2022/07/22 12:02:07;;;;;;;15.70;13.03;;;22.80;79.50;;;;;;4969209;28;20513;-71
2022/07/22 12:04:38;;;;;;;12.87;11.50;;;22.80;79.40;;;;;;4935826;29;20947;-72
2022/07/22 12:07:04;;;;;;;13.00;11.67;;;22.90;79.40;;;;;;4951349;28;20430;-74
2022/07/22 12:09:33;;;;;;;13.13;11.80;;;22.90;79.30;;;;;;4976197;28;20430;-71
2022/07/22 12:12:00;;;;;;;14.10;11.70;;;22.90;79.20;;;;;;4969498;28;20459;-75
2022/07/22 12:14:28;;;;;;;17.10;13.20;;;23.00;79.30;;;;;;4983228;28;20835;-69
2022/07/22 12:17:02;;;;;;;14.80;13.30;;;23.00;79.20;;;;;;4968312;28;20543;-68
2022/07/22 12:19:31;;;;;;;13.80;12.50;;;23.00;79.10;;;;;;4969923;28;21193;-69
2022/07/22 12:22:12;;;;;;;16.03;13.77;;;23.00;79.20;;;;;;4969846;28;20442;-69
2022/07/22 12:24:45;;;;;;;13.90;12.53;;;23.00;79.20;;;;;;4969303;28;20450;-68
2022/07/22 12:27:33;;;;;;;14.33;12.87;;;23.00;79.10;;;;;;4942694;28;21061;-68
2022/07/22 12:29:59;;;;;;;13.93;12.63;;;23.10;79.20;;;;;;4970824;28;20492;-71
2022/07/22 12:32:29;;;;;;;14.10;12.70;;;23.10;79.00;;;;;;4977891;28;20516;-70
2022/07/22 12:35:01;;;;;;;14.93;13.33;;;23.10;78.80;;;;;;4953713;28;20524;-69
2022/07/22 12:37:28;;;;;;;15.73;14.13;;;23.10;78.70;;;;;;4968060;28;20458;-72
2022/07/22 12:40:06;;;;;;;16.80;13.80;;;23.10;78.60;;;;;;4937248;28;20480;-72
2022/07/22 12:42:41;;;;;;;15.03;13.53;;;23.10;78.70;;;;;;4952968;28;20449;-72
2022/07/22 12:45:10;;;;;;;14.47;12.97;;;23.10;78.50;;;;;;4966662;28;20438;-73
2022/07/22 12:47:47;;;;;;;15.10;13.50;;;23.20;78.60;;;;;;4968932;28;20556;-73
2022/07/22 12:50:19;;;;;;;14.73;13.23;;;23.20;78.60;;;;;;4968755;28;20477;-72
2022/07/22 12:52:50;;;;;;;13.97;12.70;;;23.20;78.50;;;;;;4971266;28;20434;-73
2022/07/22 12:55:18;;;;;;;14.80;13.30;;;23.20;78.30;;;;;;4949089;28;20451;-75
2022/07/22 12:57:47;;;;;;;14.90;13.50;;;23.20;78.30;;;;;;4961806;28;20449;-70
2022/07/22 13:00:23;;;;;;;15.93;13.97;;;23.20;78.10;;;;;;4947224;29;20478;-73
2022/07/22 13:02:49;;;;;;;13.63;12.40;;;23.30;78.20;;;;;;4969842;28;20775;-72
2022/07/22 13:05:18;;;;;;;16.30;13.13;;;23.30;78.00;;;;;;4972162;28;20485;-74
2022/07/22 13:07:45;;;;;;;13.77;12.47;;;23.30;78.00;;;;;;4973630;28;20417;-73
2022/07/22 13:10:19;;;;;;;14.50;13.10;;;23.30;78.00;;;;;;4960626;28;20991;-74